sensor_id;sensor_type;location;lat;lon;timestamp;pressure;altitude;pressure_sealevel;temperature;humidity
11448;BME280;43755;49.736;8.734;2022-08-02T00:01:55;98073.97;;;17.37;100.00
11448;BME280;43755;49.736;8.734;2022-08-02T00:03:56;98069.34;;;17.39;100.00
11448;BME280;43755;49.736;8.734;2022-08-02T00:05:58;98075.47;;;17.41;100.00
11448;BME280;43755;49.736;8.734;2022-08-02T00:07:59;98075.13;;;17.45;100.00
11448;BME280;43755;49.736;8.734;2022-08-02T00:10:01;98070.75;;;17.44;100.00
11448;BME280;43755;49.736;8.734;2022-08-02T00:12:03;98071.94;;;17.40;100.00
11448;BME280;43755;49.736;8.734;2022-08-02T00:14:05;98079.41;;;17.35;100.00
11448;BME280;43755;49.736;8.734;2022-08-02T00:16:08;98082.50;;;17.29;100.00
11448;BME280;43755;49.736;8.734;2022-08-02T00:18:09;98074.41;;;17.31;100.00
11448;BME280;43755;49.736;8.734;2022-08-02T00:20:11;98066.25;;;17.32;100.00
11448;BME280;43755;49.736;8.734;2022-08-02T00:22:12;98068.31;;;17.41;100.00
11448;BME280;43755;49.736;8.734;2022-08-02T00:24:14;98065.09;;;17.49;100.00
11448;BME280;43755;49.736;8.734;2022-08-02T00:26:15;98061.16;;;17.54;100.00
11448;BME280;43755;49.736;8.734;2022-08-02T00:28:17;98054.59;;;17.58;100.00
11448;BME280;43755;49.736;8.734;2022-08-02T00:30:18;98056.88;;;17.65;100.00
11448;BME280;43755;49.736;8.734;2022-08-02T00:32:22;98052.06;;;17.70;100.00
11448;BME280;43755;49.736;8.734;2022-08-02T00:34:23;98048.41;;;17.58;100.00
11448;BME280;43755;49.736;8.734;2022-08-02T00:36:25;98053.53;;;17.48;100.00
11448;BME280;43755;49.736;8.734;2022-08-02T00:38:26;98045.81;;;17.44;100.00
11448;BME280;43755;49.736;8.734;2022-08-02T00:40:28;98056.41;;;17.33;100.00
11448;BME280;43755;49.736;8.734;2022-08-02T00:42:29;98054.16;;;17.27;100.00
11448;BME280;43755;49.736;8.734;2022-08-02T00:44:31;98053.44;;;17.25;100.00
11448;BME280;43755;49.736;8.734;2022-08-02T00:46:32;98048.28;;;17.22;100.00
11448;BME280;43755;49.736;8.734;2022-08-02T00:48:35;98050.31;;;17.18;100.00
11448;BME280;43755;49.736;8.734;2022-08-02T00:50:37;98058.44;;;17.16;100.00
11448;BME280;43755;49.736;8.734;2022-08-02T00:52:40;98061.09;;;17.16;100.00
11448;BME280;43755;49.736;8.734;2022-08-02T00:54:41;98069.34;;;17.13;100.00
11448;BME280;43755;49.736;8.734;2022-08-02T00:56:42;98066.88;;;17.10;100.00
11448;BME280;43755;49.736;8.734;2022-08-02T00:58:44;98066.22;;;17.07;100.00
11448;BME280;43755;49.736;8.734;2022-08-02T01:00:46;98071.31;;;16.97;100.00
11448;BME280;43755;49.736;8.734;2022-08-02T01:02:48;98074.41;;;16.91;100.00
11448;BME280;43755;49.736;8.734;2022-08-02T01:04:51;98072.44;;;16.81;100.00
11448;BME280;43755;49.736;8.734;2022-08-02T01:06:52;98072.22;;;16.71;100.00
11448;BME280;43755;49.736;8.734;2022-08-02T01:08:54;98079.16;;;16.73;100.00
11448;BME280;43755;49.736;8.734;2022-08-02T01:10:55;98079.06;;;16.75;100.00
11448;BME280;43755;49.736;8.734;2022-08-02T01:12:57;98078.16;;;16.89;100.00
11448;BME280;43755;49.736;8.734;2022-08-02T01:15:01;98087.66;;;16.93;100.00
11448;BME280;43755;49.736;8.734;2022-08-02T01:17:07;98082.31;;;16.93;100.00
11448;BME280;43755;49.736;8.734;2022-08-02T01:19:26;98084.81;;;16.96;100.00
11448;BME280;43755;49.736;8.734;2022-08-02T01:21:48;98087.56;;;16.94;100.00
11448;BME280;43755;49.736;8.734;2022-08-02T01:23:56;98088.53;;;16.93;100.00
11448;BME280;43755;49.736;8.734;2022-08-02T01:26:19;98093.66;;;16.84;100.00
11448;BME280;43755;49.736;8.734;2022-08-02T01:28:35;98085.25;;;16.75;100.00
11448;BME280;43755;49.736;8.734;2022-08-02T01:30:39;98088.16;;;16.72;100.00
11448;BME280;43755;49.736;8.734;2022-08-02T01:32:48;98088.97;;;16.73;100.00
11448;BME280;43755;49.736;8.734;2022-08-02T01:34:54;98092.81;;;16.69;100.00
11448;BME280;43755;49.736;8.734;2022-08-02T01:37:00;98089.69;;;16.62;100.00
11448;BME280;43755;49.736;8.734;2022-08-02T01:39:03;98086.44;;;16.57;100.00
11448;BME280;43755;49.736;8.734;2022-08-02T01:41:07;98091.00;;;16.55;100.00
11448;BME280;43755;49.736;8.734;2022-08-02T01:43:10;98086.44;;;16.57;100.00
11448;BME280;43755;49.736;8.734;2022-08-02T01:45:15;98084.72;;;16.56;100.00
11448;BME280;43755;49.736;8.734;2022-08-02T01:47:20;98088.78;;;16.49;100.00
11448;BME280;43755;49.736;8.734;2022-08-02T01:49:23;98083.44;;;16.49;100.00
11448;BME280;43755;49.736;8.734;2022-08-02T01:51:28;98087.69;;;16.52;100.00
11448;BME280;43755;49.736;8.734;2022-08-02T01:53:48;98082.28;;;16.53;100.00
11448;BME280;43755;49.736;8.734;2022-08-02T01:55:53;98082.28;;;16.53;100.00
11448;BME280;43755;49.736;8.734;2022-08-02T01:57:58;98075.53;;;16.48;100.00
11448;BME280;43755;49.736;8.734;2022-08-02T02:00:02;98081.03;;;16.45;100.00
11448;BME280;43755;49.736;8.734;2022-08-02T02:02:07;98078.28;;;16.46;100.00
11448;BME280;43755;49.736;8.734;2022-08-02T02:04:10;98072.16;;;16.44;100.00
11448;BME280;43755;49.736;8.734;2022-08-02T02:06:13;98077.72;;;16.41;100.00
11448;BME280;43755;49.736;8.734;2022-08-02T02:08:19;98074.50;;;16.36;100.00
11448;BME280;43755;49.736;8.734;2022-08-02T02:10:25;98074.91;;;16.30;100.00
11448;BME280;43755;49.736;8.734;2022-08-02T02:12:29;98067.84;;;16.29;100.00
11448;BME280;43755;49.736;8.734;2022-08-02T02:14:32;98069.88;;;16.25;100.00
11448;BME280;43755;49.736;8.734;2022-08-02T02:16:35;98069.94;;;16.24;100.00
11448;BME280;43755;49.736;8.734;2022-08-02T02:18:40;98068.53;;;16.18;100.00
11448;BME280;43755;49.736;8.734;2022-08-02T02:20:43;98083.78;;;16.16;100.00
11448;BME280;43755;49.736;8.734;2022-08-02T02:22:46;98076.63;;;16.17;100.00
11448;BME280;43755;49.736;8.734;2022-08-02T02:24:48;98075.13;;;16.13;100.00
11448;BME280;43755;49.736;8.734;2022-08-02T02:26:50;98068.84;;;16.14;100.00
11448;BME280;43755;49.736;8.734;2022-08-02T02:28:53;98068.16;;;16.10;100.00
11448;BME280;43755;49.736;8.734;2022-08-02T02:30:59;98069.22;;;16.08;100.00
11448;BME280;43755;49.736;8.734;2022-08-02T02:33:05;98069.41;;;16.05;100.00
11448;BME280;43755;49.736;8.734;2022-08-02T02:35:10;98066.94;;;16.02;100.00
11448;BME280;43755;49.736;8.734;2022-08-02T02:37:20;98065.63;;;15.94;100.00
11448;BME280;43755;49.736;8.734;2022-08-02T02:39:22;98067.91;;;15.86;100.00
11448;BME280;43755;49.736;8.734;2022-08-02T02:41:26;98059.63;;;15.77;100.00
11448;BME280;43755;49.736;8.734;2022-08-02T02:43:30;98061.44;;;15.76;100.00
11448;BME280;43755;49.736;8.734;2022-08-02T02:45:33;98055.16;;;15.77;100.00
11448;BME280;43755;49.736;8.734;2022-08-02T02:47:36;98065.06;;;15.75;100.00
11448;BME280;43755;49.736;8.734;2022-08-02T02:49:38;98063.25;;;15.76;100.00
11448;BME280;43755;49.736;8.734;2022-08-02T02:51:43;98060.38;;;15.79;100.00
11448;BME280;43755;49.736;8.734;2022-08-02T02:53:45;98067.63;;;15.77;100.00
11448;BME280;43755;49.736;8.734;2022-08-02T02:55:49;98069.16;;;15.81;100.00
11448;BME280;43755;49.736;8.734;2022-08-02T02:57:52;98068.97;;;15.84;100.00
11448;BME280;43755;49.736;8.734;2022-08-02T02:59:54;98071.81;;;15.81;100.00
11448;BME280;43755;49.736;8.734;2022-08-02T03:01:56;98067.63;;;15.77;100.00
11448;BME280;43755;49.736;8.734;2022-08-02T03:03:59;98071.91;;;15.79;100.00
11448;BME280;43755;49.736;8.734;2022-08-02T03:06:02;98071.25;;;15.76;100.00
11448;BME280;43755;49.736;8.734;2022-08-02T03:08:05;98081.06;;;15.75;100.00
11448;BME280;43755;49.736;8.734;2022-08-02T03:10:07;98071.72;;;15.68;100.00
11448;BME280;43755;49.736;8.734;2022-08-02T03:12:09;98077.34;;;15.64;100.00
11448;BME280;43755;49.736;8.734;2022-08-02T03:14:12;98074.03;;;15.60;100.00
11448;BME280;43755;49.736;8.734;2022-08-02T03:16:14;98082.41;;;15.54;100.00
11448;BME280;43755;49.736;8.734;2022-08-02T03:18:29;98081.88;;;15.47;100.00
11448;BME280;43755;49.736;8.734;2022-08-02T03:20:30;98081.31;;;15.42;100.00
11448;BME280;43755;49.736;8.734;2022-08-02T03:22:32;98086.44;;;15.45;100.00
11448;BME280;43755;49.736;8.734;2022-08-02T03:24:35;98088.59;;;15.54;100.00
11448;BME280;43755;49.736;8.734;2022-08-02T03:26:36;98083.81;;;15.60;100.00
11448;BME280;43755;49.736;8.734;2022-08-02T03:28:38;98084.56;;;15.62;100.00
11448;BME280;43755;49.736;8.734;2022-08-02T03:30:39;98090.75;;;15.62;100.00
11448;BME280;43755;49.736;8.734;2022-08-02T03:32:44;98098.75;;;15.62;100.00
11448;BME280;43755;49.736;8.734;2022-08-02T03:34:46;98092.47;;;15.63;100.00
11448;BME280;43755;49.736;8.734;2022-08-02T03:36:51;98103.22;;;15.62;100.00
11448;BME280;43755;49.736;8.734;2022-08-02T03:38:55;98091.81;;;15.60;100.00
11448;BME280;43755;49.736;8.734;2022-08-02T03:41:03;98087.44;;;15.59;100.00
11448;BME280;43755;49.736;8.734;2022-08-02T03:43:04;98082.53;;;15.51;100.00
11448;BME280;43755;49.736;8.734;2022-08-02T03:45:08;98070.97;;;15.52;100.00
11448;BME280;43755;49.736;8.734;2022-08-02T03:47:11;98074.53;;;15.51;100.00
11448;BME280;43755;49.736;8.734;2022-08-02T03:49:14;98067.13;;;15.56;100.00
11448;BME280;43755;49.736;8.734;2022-08-02T03:51:18;98069.63;;;15.59;100.00
11448;BME280;43755;49.736;8.734;2022-08-02T03:53:19;98068.84;;;15.57;100.00
11448;BME280;43755;49.736;8.734;2022-08-02T03:55:21;98076.47;;;15.49;100.00
11448;BME280;43755;49.736;8.734;2022-08-02T03:57:25;98080.72;;;15.37;100.00
11448;BME280;43755;49.736;8.734;2022-08-02T03:59:26;98085.53;;;15.16;100.00
11448;BME280;43755;49.736;8.734;2022-08-02T04:01:28;98077.13;;;15.08;100.00
11448;BME280;43755;49.736;8.734;2022-08-02T04:03:29;98085.47;;;15.02;100.00
11448;BME280;43755;49.736;8.734;2022-08-02T04:05:31;98078.34;;;15.03;100.00
11448;BME280;43755;49.736;8.734;2022-08-02T04:07:32;98082.66;;;15.05;100.00
11448;BME280;43755;49.736;8.734;2022-08-02T04:09:34;98076.25;;;15.08;100.00
11448;BME280;43755;49.736;8.734;2022-08-02T04:11:35;98082.28;;;15.11;100.00
11448;BME280;43755;49.736;8.734;2022-08-02T04:13:39;98081.63;;;15.22;100.00
11448;BME280;43755;49.736;8.734;2022-08-02T04:15:41;98090.28;;;15.26;100.00
11448;BME280;43755;49.736;8.734;2022-08-02T04:17:52;98088.03;;;15.34;100.00
11448;BME280;43755;49.736;8.734;2022-08-02T04:20:00;98082.16;;;15.43;100.00
11448;BME280;43755;49.736;8.734;2022-08-02T04:22:03;98085.19;;;15.51;100.00
11448;BME280;43755;49.736;8.734;2022-08-02T04:24:07;98083.13;;;15.56;100.00
11448;BME280;43755;49.736;8.734;2022-08-02T04:26:09;98094.19;;;15.64;100.00
11448;BME280;43755;49.736;8.734;2022-08-02T04:28:12;98089.72;;;15.65;100.00
11448;BME280;43755;49.736;8.734;2022-08-02T04:30:17;98091.44;;;15.66;100.00
11448;BME280;43755;49.736;8.734;2022-08-02T04:32:21;98093.34;;;15.64;100.00
11448;BME280;43755;49.736;8.734;2022-08-02T04:34:23;98095.25;;;15.62;100.00
11448;BME280;43755;49.736;8.734;2022-08-02T04:36:25;98093.63;;;15.59;100.00
11448;BME280;43755;49.736;8.734;2022-08-02T04:38:26;98092.84;;;15.57;100.00
11448;BME280;43755;49.736;8.734;2022-08-02T04:40:28;98094.88;;;15.53;100.00
11448;BME280;43755;49.736;8.734;2022-08-02T04:42:29;98097.44;;;15.55;100.00
11448;BME280;43755;49.736;8.734;2022-08-02T04:44:31;98096.69;;;15.53;100.00
11448;BME280;43755;49.736;8.734;2022-08-02T04:46:34;98097.91;;;15.62;100.00
11448;BME280;43755;49.736;8.734;2022-08-02T04:48:36;98099.53;;;15.64;100.00
11448;BME280;43755;49.736;8.734;2022-08-02T04:50:38;98099.16;;;15.70;100.00
11448;BME280;43755;49.736;8.734;2022-08-02T04:52:39;98100.97;;;15.84;100.00
11448;BME280;43755;49.736;8.734;2022-08-02T04:54:41;98098.75;;;15.90;100.00
11448;BME280;43755;49.736;8.734;2022-08-02T04:56:42;98105.63;;;15.94;100.00
11448;BME280;43755;49.736;8.734;2022-08-02T04:58:44;98108.41;;;15.93;100.00
11448;BME280;43755;49.736;8.734;2022-08-02T05:00:45;98104.09;;;15.90;100.00
11448;BME280;43755;49.736;8.734;2022-08-02T05:02:48;98102.28;;;15.91;100.00
11448;BME280;43755;49.736;8.734;2022-08-02T05:04:49;98100.78;;;16.01;100.00
11448;BME280;43755;49.736;8.734;2022-08-02T05:06:51;98102.72;;;16.26;100.00
11448;BME280;43755;49.736;8.734;2022-08-02T05:08:53;98109.72;;;16.69;100.00
11448;BME280;43755;49.736;8.734;2022-08-02T05:10:54;98110.94;;;17.17;100.00
11448;BME280;43755;49.736;8.734;2022-08-02T05:12:56;98120.13;;;17.66;100.00
11448;BME280;43755;49.736;8.734;2022-08-02T05:14:57;98115.00;;;17.88;100.00
11448;BME280;43755;49.736;8.734;2022-08-02T05:16:59;98122.59;;;17.94;100.00
11448;BME280;43755;49.736;8.734;2022-08-02T05:19:02;98120.84;;;18.06;100.00
11448;BME280;43755;49.736;8.734;2022-08-02T05:21:04;98121.19;;;18.14;100.00
11448;BME280;43755;49.736;8.734;2022-08-02T05:23:05;98124.06;;;18.23;100.00
11448;BME280;43755;49.736;8.734;2022-08-02T05:25:08;98129.91;;;18.41;100.00
11448;BME280;43755;49.736;8.734;2022-08-02T05:27:09;98120.13;;;18.53;100.00
11448;BME280;43755;49.736;8.734;2022-08-02T05:29:11;98124.00;;;18.61;100.00
11448;BME280;43755;49.736;8.734;2022-08-02T05:31:12;98114.41;;;18.70;100.00
11448;BME280;43755;49.736;8.734;2022-08-02T05:33:14;98117.72;;;18.73;100.00
11448;BME280;43755;49.736;8.734;2022-08-02T05:35:18;98117.94;;;18.70;100.00
11448;BME280;43755;49.736;8.734;2022-08-02T05:37:20;98118.28;;;18.66;100.00
11448;BME280;43755;49.736;8.734;2022-08-02T05:39:22;98107.91;;;18.61;100.00
11448;BME280;43755;49.736;8.734;2022-08-02T05:41:24;98104.25;;;18.62;100.00
11448;BME280;43755;49.736;8.734;2022-08-02T05:43:25;98109.84;;;18.59;100.00
11448;BME280;43755;49.736;8.734;2022-08-02T05:45:28;98110.81;;;18.58;100.00
11448;BME280;43755;49.736;8.734;2022-08-02T05:47:34;98116.16;;;18.58;100.00
11448;BME280;43755;49.736;8.734;2022-08-02T05:49:35;98107.28;;;18.58;100.00
11448;BME280;43755;49.736;8.734;2022-08-02T05:51:42;98113.81;;;18.54;100.00
11448;BME280;43755;49.736;8.734;2022-08-02T05:53:50;98119.91;;;18.56;100.00
11448;BME280;43755;49.736;8.734;2022-08-02T05:55:57;98122.03;;;18.63;100.00
11448;BME280;43755;49.736;8.734;2022-08-02T05:58:05;98121.69;;;18.68;100.00
11448;BME280;43755;49.736;8.734;2022-08-02T06:00:14;98123.94;;;18.74;100.00
11448;BME280;43755;49.736;8.734;2022-08-02T06:02:24;98120.94;;;18.78;100.00
11448;BME280;43755;49.736;8.734;2022-08-02T06:04:32;98133.97;;;18.83;100.00
11448;BME280;43755;49.736;8.734;2022-08-02T06:06:35;98124.97;;;18.84;100.00
11448;BME280;43755;49.736;8.734;2022-08-02T06:08:42;98125.66;;;18.99;100.00
11448;BME280;43755;49.736;8.734;2022-08-02T06:10:45;98135.56;;;19.09;100.00
11448;BME280;43755;49.736;8.734;2022-08-02T06:12:48;98129.53;;;19.18;100.00
11448;BME280;43755;49.736;8.734;2022-08-02T06:14:51;98133.56;;;19.24;100.00
11448;BME280;43755;49.736;8.734;2022-08-02T06:16:54;98124.13;;;19.42;100.00
11448;BME280;43755;49.736;8.734;2022-08-02T06:18:58;98129.44;;;19.55;100.00
11448;BME280;43755;49.736;8.734;2022-08-02T06:21:01;98129.31;;;19.68;100.00
11448;BME280;43755;49.736;8.734;2022-08-02T06:23:03;98126.91;;;19.76;100.00
11448;BME280;43755;49.736;8.734;2022-08-02T06:25:07;98133.78;;;19.91;100.00
11448;BME280;43755;49.736;8.734;2022-08-02T06:27:10;98131.72;;;20.06;100.00
11448;BME280;43755;49.736;8.734;2022-08-02T06:29:12;98124.63;;;20.16;100.00
11448;BME280;43755;49.736;8.734;2022-08-02T06:31:15;98123.81;;;20.37;100.00
11448;BME280;43755;49.736;8.734;2022-08-02T06:33:16;98119.00;;;20.63;100.00
11448;BME280;43755;49.736;8.734;2022-08-02T06:35:18;98126.91;;;20.76;100.00
11448;BME280;43755;49.736;8.734;2022-08-02T06:37:26;98130.81;;;20.83;100.00
11448;BME280;43755;49.736;8.734;2022-08-02T06:39:31;98138.47;;;20.99;100.00
11448;BME280;43755;49.736;8.734;2022-08-02T06:41:40;98136.47;;;21.12;100.00
11448;BME280;43755;49.736;8.734;2022-08-02T06:43:46;98135.81;;;21.31;100.00
11448;BME280;43755;49.736;8.734;2022-08-02T06:45:50;98139.38;;;21.31;100.00
11448;BME280;43755;49.736;8.734;2022-08-02T06:47:52;98139.78;;;21.47;100.00
11448;BME280;43755;49.736;8.734;2022-08-02T06:49:54;98144.31;;;21.47;98.41
11448;BME280;43755;49.736;8.734;2022-08-02T06:51:57;98146.25;;;21.24;94.64
11448;BME280;43755;49.736;8.734;2022-08-02T06:53:59;98148.59;;;21.17;92.52
11448;BME280;43755;49.736;8.734;2022-08-02T06:56:00;98147.94;;;21.25;94.89
11448;BME280;43755;49.736;8.734;2022-08-02T06:58:03;98149.34;;;21.40;93.61
11448;BME280;43755;49.736;8.734;2022-08-02T07:00:05;98145.78;;;21.40;89.73
11448;BME280;43755;49.736;8.734;2022-08-02T07:02:10;98145.44;;;21.33;89.27
11448;BME280;43755;49.736;8.734;2022-08-02T07:04:12;98148.59;;;21.17;86.73
11448;BME280;43755;49.736;8.734;2022-08-02T07:06:14;98146.88;;;21.16;87.79
11448;BME280;43755;49.736;8.734;2022-08-02T07:08:15;98150.66;;;21.14;88.08
11448;BME280;43755;49.736;8.734;2022-08-02T07:10:17;98151.03;;;21.20;87.57
11448;BME280;43755;49.736;8.734;2022-08-02T07:12:19;98157.25;;;21.21;88.50
11448;BME280;43755;49.736;8.734;2022-08-02T07:14:22;98154.03;;;21.27;85.56
11448;BME280;43755;49.736;8.734;2022-08-02T07:16:23;98156.72;;;21.38;85.77
11448;BME280;43755;49.736;8.734;2022-08-02T07:18:25;98158.22;;;21.52;81.17
11448;BME280;43755;49.736;8.734;2022-08-02T07:20:26;98170.44;;;21.56;80.77
11448;BME280;43755;49.736;8.734;2022-08-02T07:22:28;98155.13;;;21.56;81.33
11448;BME280;43755;49.736;8.734;2022-08-02T07:24:30;98154.94;;;21.48;68.99
11448;BME280;43755;49.736;8.734;2022-08-02T07:26:31;98158.31;;;21.61;77.33
11448;BME280;43755;49.736;8.734;2022-08-02T07:28:33;98146.63;;;21.72;69.21
11448;BME280;43755;49.736;8.734;2022-08-02T07:30:36;98149.13;;;21.85;68.23
11448;BME280;43755;49.736;8.734;2022-08-02T07:32:39;98152.78;;;21.84;72.43
11448;BME280;43755;49.736;8.734;2022-08-02T07:34:40;98151.13;;;21.92;71.48
11448;BME280;43755;49.736;8.734;2022-08-02T07:36:42;98149.25;;;22.04;71.40
11448;BME280;43755;49.736;8.734;2022-08-02T07:38:44;98153.41;;;22.08;71.68
11448;BME280;43755;49.736;8.734;2022-08-02T07:40:45;98138.97;;;22.19;72.24
11448;BME280;43755;49.736;8.734;2022-08-02T07:42:48;98142.22;;;22.43;70.84
11448;BME280;43755;49.736;8.734;2022-08-02T07:44:51;98142.09;;;22.54;67.75
11448;BME280;43755;49.736;8.734;2022-08-02T07:46:54;98135.34;;;22.69;68.50
11448;BME280;43755;49.736;8.734;2022-08-02T07:48:55;98138.97;;;22.89;69.06
11448;BME280;43755;49.736;8.734;2022-08-02T07:50:57;98138.25;;;22.87;61.54
11448;BME280;43755;49.736;8.734;2022-08-02T07:52:58;98145.47;;;22.77;62.38
11448;BME280;43755;49.736;8.734;2022-08-02T07:55:00;98132.00;;;22.77;62.20
11448;BME280;43755;49.736;8.734;2022-08-02T07:57:01;98129.72;;;22.72;62.14
11448;BME280;43755;49.736;8.734;2022-08-02T07:59:03;98128.56;;;22.75;60.27
11448;BME280;43755;49.736;8.734;2022-08-02T08:01:04;98146.53;;;22.55;57.13
11448;BME280;43755;49.736;8.734;2022-08-02T08:03:07;98144.38;;;22.59;61.26
11448;BME280;43755;49.736;8.734;2022-08-02T08:05:09;98147.97;;;22.69;58.29
11448;BME280;43755;49.736;8.734;2022-08-02T08:07:11;98140.22;;;22.75;56.53
11448;BME280;43755;49.736;8.734;2022-08-02T08:09:12;98142.06;;;22.75;53.92
11448;BME280;43755;49.736;8.734;2022-08-02T08:11:14;98144.16;;;22.71;55.04
11448;BME280;43755;49.736;8.734;2022-08-02T08:13:16;98143.22;;;22.92;54.85
11448;BME280;43755;49.736;8.734;2022-08-02T08:15:17;98147.66;;;23.12;53.78
11448;BME280;43755;49.736;8.734;2022-08-02T08:17:19;98141.72;;;23.18;51.47
11448;BME280;43755;49.736;8.734;2022-08-02T08:19:22;98147.09;;;23.08;52.87
11448;BME280;43755;49.736;8.734;2022-08-02T08:21:23;98139.41;;;23.04;51.95
11448;BME280;43755;49.736;8.734;2022-08-02T08:23:24;98143.13;;;23.12;50.86
11448;BME280;43755;49.736;8.734;2022-08-02T08:25:26;98151.47;;;23.00;51.05
11448;BME280;43755;49.736;8.734;2022-08-02T08:27:27;98140.50;;;22.82;50.95
11448;BME280;43755;49.736;8.734;2022-08-02T08:29:29;98155.72;;;22.83;51.85
11448;BME280;43755;49.736;8.734;2022-08-02T08:31:30;98145.91;;;22.92;52.85
11448;BME280;43755;49.736;8.734;2022-08-02T08:33:32;98146.22;;;22.98;49.65
11448;BME280;43755;49.736;8.734;2022-08-02T08:35:35;98149.94;;;23.07;49.78
11448;BME280;43755;49.736;8.734;2022-08-02T08:37:37;98149.81;;;23.18;50.88
11448;BME280;43755;49.736;8.734;2022-08-02T08:39:39;98144.97;;;23.21;47.07
11448;BME280;43755;49.736;8.734;2022-08-02T08:41:42;98147.09;;;23.27;49.19
11448;BME280;43755;49.736;8.734;2022-08-02T08:43:44;98136.59;;;23.24;48.89
11448;BME280;43755;49.736;8.734;2022-08-02T08:45:47;98141.28;;;23.42;47.98
11448;BME280;43755;49.736;8.734;2022-08-02T08:47:51;98152.53;;;23.47;47.23
11448;BME280;43755;49.736;8.734;2022-08-02T08:49:55;98149.25;;;23.43;49.71
11448;BME280;43755;49.736;8.734;2022-08-02T08:52:03;98151.44;;;23.49;49.90
11448;BME280;43755;49.736;8.734;2022-08-02T08:54:08;98144.44;;;23.47;49.78
11448;BME280;43755;49.736;8.734;2022-08-02T08:56:10;98150.13;;;23.63;51.27
11448;BME280;43755;49.736;8.734;2022-08-02T08:58:12;98152.53;;;23.56;49.06
11448;BME280;43755;49.736;8.734;2022-08-02T09:00:14;98148.41;;;23.72;50.50
11448;BME280;43755;49.736;8.734;2022-08-02T09:02:16;98155.81;;;23.79;51.06
11448;BME280;43755;49.736;8.734;2022-08-02T09:04:18;98158.50;;;23.79;50.55
11448;BME280;43755;49.736;8.734;2022-08-02T09:06:20;98162.06;;;23.70;50.33
11448;BME280;43755;49.736;8.734;2022-08-02T09:08:23;98167.88;;;23.75;51.00
11448;BME280;43755;49.736;8.734;2022-08-02T09:10:32;98157.06;;;23.85;49.84
11448;BME280;43755;49.736;8.734;2022-08-02T09:12:34;98151.66;;;23.94;48.76
11448;BME280;43755;49.736;8.734;2022-08-02T09:14:35;98154.22;;;23.96;49.30
11448;BME280;43755;49.736;8.734;2022-08-02T09:16:38;98151.47;;;24.05;47.94
11448;BME280;43755;49.736;8.734;2022-08-02T09:18:41;98145.34;;;24.03;47.59
11448;BME280;43755;49.736;8.734;2022-08-02T09:20:53;98152.03;;;24.19;48.00
11448;BME280;43755;49.736;8.734;2022-08-02T09:23:07;98150.16;;;24.29;46.59
11448;BME280;43755;49.736;8.734;2022-08-02T09:25:14;98146.31;;;24.31;46.06
11448;BME280;43755;49.736;8.734;2022-08-02T09:27:17;98145.81;;;24.45;46.49
11448;BME280;43755;49.736;8.734;2022-08-02T09:29:21;98144.81;;;24.56;46.00
11448;BME280;43755;49.736;8.734;2022-08-02T09:31:23;98148.91;;;24.51;44.95
11448;BME280;43755;49.736;8.734;2022-08-02T09:33:26;98139.06;;;24.32;45.53
11448;BME280;43755;49.736;8.734;2022-08-02T09:35:33;98138.03;;;24.33;44.52
11448;BME280;43755;49.736;8.734;2022-08-02T09:37:35;98133.38;;;24.25;44.73
11448;BME280;43755;49.736;8.734;2022-08-02T09:39:42;98137.81;;;24.26;45.86
11448;BME280;43755;49.736;8.734;2022-08-02T09:41:45;98137.63;;;24.28;45.60
11448;BME280;43755;49.736;8.734;2022-08-02T09:43:48;98129.25;;;24.58;45.25
11448;BME280;43755;49.736;8.734;2022-08-02T09:45:50;98135.81;;;24.83;45.56
11448;BME280;43755;49.736;8.734;2022-08-02T09:47:52;98137.19;;;24.87;43.55
11448;BME280;43755;49.736;8.734;2022-08-02T09:49:55;98141.75;;;24.86;45.92
11448;BME280;43755;49.736;8.734;2022-08-02T09:51:56;98138.66;;;24.81;44.80
11448;BME280;43755;49.736;8.734;2022-08-02T09:54:00;98142.28;;;24.72;44.43
11448;BME280;43755;49.736;8.734;2022-08-02T09:56:02;98137.13;;;24.79;45.56
11448;BME280;43755;49.736;8.734;2022-08-02T09:58:17;98148.56;;;24.73;44.65
11448;BME280;43755;49.736;8.734;2022-08-02T10:00:18;98143.78;;;24.57;44.76
11448;BME280;43755;49.736;8.734;2022-08-02T10:02:20;98133.56;;;24.78;44.60
11448;BME280;43755;49.736;8.734;2022-08-02T10:04:23;98126.63;;;25.03;44.87
11448;BME280;43755;49.736;8.734;2022-08-02T10:06:25;98131.09;;;25.12;43.45
11448;BME280;43755;49.736;8.734;2022-08-02T10:08:27;98134.56;;;25.05;44.40
11448;BME280;43755;49.736;8.734;2022-08-02T10:10:29;98134.44;;;25.24;44.99
11448;BME280;43755;49.736;8.734;2022-08-02T10:12:30;98130.94;;;25.14;43.82
11448;BME280;43755;49.736;8.734;2022-08-02T10:14:34;98134.13;;;25.27;44.31
11448;BME280;43755;49.736;8.734;2022-08-02T10:16:38;98128.50;;;25.38;42.50
11448;BME280;43755;49.736;8.734;2022-08-02T10:18:40;98126.53;;;25.48;44.46
11448;BME280;43755;49.736;8.734;2022-08-02T10:20:43;98129.72;;;25.44;43.13
11448;BME280;43755;49.736;8.734;2022-08-02T10:22:45;98115.84;;;25.29;43.80
11448;BME280;43755;49.736;8.734;2022-08-02T10:24:48;98119.66;;;25.36;43.94
11448;BME280;43755;49.736;8.734;2022-08-02T10:26:50;98117.19;;;25.60;43.80
11448;BME280;43755;49.736;8.734;2022-08-02T10:28:52;98109.06;;;25.86;41.74
11448;BME280;43755;49.736;8.734;2022-08-02T10:30:55;98108.75;;;26.33;42.45
11448;BME280;43755;49.736;8.734;2022-08-02T10:32:58;98103.13;;;26.68;41.70
11448;BME280;43755;49.736;8.734;2022-08-02T10:35:05;98106.47;;;27.04;40.43
11448;BME280;43755;49.736;8.734;2022-08-02T10:37:09;98096.50;;;27.13;40.38
11448;BME280;43755;49.736;8.734;2022-08-02T10:39:11;98097.91;;;27.33;39.27
11448;BME280;43755;49.736;8.734;2022-08-02T10:41:13;98096.56;;;27.61;38.71
11448;BME280;43755;49.736;8.734;2022-08-02T10:43:39;98098.88;;;28.05;38.79
11448;BME280;43755;49.736;8.734;2022-08-02T10:45:40;98092.41;;;28.30;38.80
11448;BME280;43755;49.736;8.734;2022-08-02T10:47:57;98092.09;;;28.64;37.23